NDF72T LHBP-EDDM
Flight info
| Callsign | NDF72T |
|---|---|
| Flight time | N/A |
| Altitude | 34000 |
| Route | GILEP2B GILEP DCT ZOLKU DCT ARSIN DCT SITNI DCT BAGSI DCT MATIG DCT AMADI Q113 NAPSA NAPSA4A |
| Aircraft | A319/M-SDE3FGHIRWY/LB1 |
Departure
| Time | 2026-05-04 12:34 |
|---|---|
| Airport | Budapest Liszt Ferenc International Airport (LHBP) |
Arrival
| Time | N/A |
|---|---|
| Airport | Munich Airport (EDDM) |
| Time | Latitude | Longitude | Altitude | Speed | Heading |
|---|---|---|---|---|---|
| 2026-05-04 12:06 | 47.43411 | 19.26135 | 458 ft | 0 kts | 132° |
| 2026-05-04 12:15 | 47.43412 | 19.26135 | 457 ft | 0 kts | 132° |
| 2026-05-04 12:18 | 47.43412 | 19.26134 | 457 ft | 0 kts | 132° |
| 2026-05-04 12:24 | 47.43416 | 19.26128 | 457 ft | 2 kts | 131° |
| 2026-05-04 12:25 | 47.43428 | 19.26105 | 455 ft | 3 kts | 125° |
| 2026-05-04 12:25 | 47.43439 | 19.26080 | 454 ft | 3 kts | 117° |
| 2026-05-04 12:25 | 47.43447 | 19.26053 | 456 ft | 3 kts | 104° |
| 2026-05-04 12:25 | 47.43450 | 19.26024 | 457 ft | 3 kts | 74° |
| 2026-05-04 12:26 | 47.43445 | 19.26007 | 457 ft | 1 kts | 42° |
| 2026-05-04 12:29 | 47.43449 | 19.26013 | 457 ft | 3 kts | 42° |
| 2026-05-04 12:29 | 47.43473 | 19.26045 | 457 ft | 6 kts | 42° |
| 2026-05-04 12:30 | 47.43515 | 19.26100 | 457 ft | 10 kts | 42° |
| 2026-05-04 12:30 | 47.43568 | 19.26172 | 457 ft | 12 kts | 43° |
| 2026-05-04 12:30 | 47.43634 | 19.26261 | 457 ft | 13 kts | 42° |
| 2026-05-04 12:30 | 47.43704 | 19.26354 | 458 ft | 14 kts | 42° |
| 2026-05-04 12:31 | 47.43779 | 19.26418 | 458 ft | 12 kts | 343° |
| 2026-05-04 12:31 | 47.43841 | 19.26332 | 456 ft | 13 kts | 312° |
| 2026-05-04 12:31 | 47.43902 | 19.26235 | 458 ft | 13 kts | 313° |
| 2026-05-04 12:31 | 47.43980 | 19.26242 | 457 ft | 12 kts | 40° |
| 2026-05-04 12:32 | 47.44013 | 19.26285 | 459 ft | 4 kts | 42° |
| 2026-05-04 12:32 | 47.44054 | 19.26356 | 466 ft | 4 kts | 59° |
| 2026-05-04 12:32 | 47.44065 | 19.26402 | 466 ft | 5 kts | 74° |
| 2026-05-04 12:33 | 47.44069 | 19.26492 | 471 ft | 13 kts | 99° |
| 2026-05-04 12:33 | 47.44017 | 19.26607 | 469 ft | 14 kts | 133° |
| 2026-05-04 12:33 | 47.43888 | 19.26815 | 472 ft | 59 kts | 133° |
| 2026-05-04 12:33 | 47.43441 | 19.27539 | 470 ft | 129 kts | 133° |
| 2026-05-04 12:34 | 47.42716 | 19.28719 | 586 ft | 170 kts | 135° |
| 2026-05-04 12:34 | 47.41992 | 19.30062 | 1356 ft | 170 kts | 123° |
| 2026-05-04 12:34 | 47.41421 | 19.31577 | 2171 ft | 169 kts | 123° |
| 2026-05-04 12:34 | 47.40808 | 19.33187 | 2660 ft | 191 kts | 123° |
| 2026-05-04 12:35 | 47.40109 | 19.35006 | 3088 ft | 217 kts | 123° |
| 2026-05-04 12:35 | 47.39330 | 19.37033 | 3627 ft | 235 kts | 123° |
| 2026-05-04 12:35 | 47.39069 | 19.37718 | 3891 ft | 238 kts | 122° |